createdAt,value
2022-10-05T00:04:20.506Z,101040.36
2022-10-05T00:07:53.306Z,101042.77
2022-10-05T00:15:02.064Z,101037.52
2022-10-05T00:18:43.399Z,101043.71
2022-10-05T00:44:51.101Z,101021.45
2022-10-05T00:48:07.836Z,101010.29
2022-10-05T00:55:49.600Z,100996.27
2022-10-05T01:00:07.983Z,100995.81
2022-10-05T01:04:21.104Z,100990.05
2022-10-05T01:29:24.381Z,100984.35
2022-10-05T01:34:25.911Z,100976.41
2022-10-05T01:36:53.618Z,100974.47
2022-10-05T01:40:56.104Z,100977.94
2022-10-05T01:43:57.788Z,100984.45
2022-10-05T01:47:07.874Z,100987.10
2022-10-05T01:49:43.499Z,100990.48
2022-10-05T01:53:03.043Z,100984.70
2022-10-05T01:56:08.279Z,100978.33
2022-10-05T01:59:03.251Z,100980.08
2022-10-05T02:02:18.682Z,100976.23
2022-10-05T02:05:30.025Z,100967.16
2022-10-05T02:09:17.647Z,100970.27
2022-10-05T02:12:30.374Z,100981.13
2022-10-05T02:15:34.967Z,100991.67
2022-10-05T02:18:38.568Z,100988.29
2022-10-05T02:21:24.170Z,100976.17
2022-10-05T02:24:03.482Z,100982.02
2022-10-05T02:26:45.435Z,100975.73
2022-10-05T02:29:27.093Z,100972.54
2022-10-05T02:33:01.201Z,100967.71
2022-10-05T02:36:02.159Z,100956.20
2022-10-05T02:39:05.512Z,100960.12
2022-10-05T02:42:24.868Z,100959.11
2022-10-05T02:51:49.872Z,100951.98
2022-10-05T02:53:55.728Z,100946.88
2022-10-05T02:57:19.539Z,100938.30
2022-10-05T03:00:23.603Z,100924.80
2022-10-05T03:05:16.633Z,100934.84
2022-10-05T03:09:23.238Z,100928.92
2022-10-05T03:13:36.305Z,100931.05
2022-10-05T03:16:39.485Z,100930.88
2022-10-05T03:20:47.668Z,100933.94
2022-10-05T03:26:11.255Z,100930.38
2022-10-05T03:49:35.624Z,100931.56
2022-10-05T03:58:27.921Z,100922.02
2022-10-05T04:39:58.505Z,100935.91
2022-10-05T04:44:04.349Z,100939.50
2022-10-05T04:47:43.300Z,100939.60
2022-10-05T04:51:05.138Z,100936.18
2022-10-05T04:54:04.388Z,100932.97
2022-10-05T04:57:44.137Z,100927.90
2022-10-05T05:00:31.327Z,100925.66
2022-10-05T05:04:21.691Z,100927.90
2022-10-05T05:07:45.525Z,100934.92
2022-10-05T05:11:26.723Z,100939.83
2022-10-05T05:14:44.745Z,100937.45
2022-10-05T05:17:38.729Z,100936.45
2022-10-05T05:24:37.285Z,100938.17
2022-10-05T05:27:46.387Z,100931.36
2022-10-05T05:30:46.503Z,100923.10
2022-10-05T05:33:36.410Z,100925.50
2022-10-05T05:36:28.480Z,100930.40
2022-10-05T05:39:22.999Z,100926.73
2022-10-05T05:42:26.970Z,100931.77
2022-10-05T05:45:31.426Z,100929.55
2022-10-05T05:48:21.556Z,100930.73
2022-10-05T05:51:38.935Z,100927.58
2022-10-05T05:54:16.387Z,100925.36
2022-10-05T05:57:17.141Z,100928.44
2022-10-05T06:00:25.178Z,100931.20
2022-10-05T06:03:32.191Z,100935.34
2022-10-05T06:06:12.633Z,100937.80
2022-10-05T06:08:51.681Z,100933.08
2022-10-05T06:12:08.049Z,100935.24
2022-10-05T06:15:46.781Z,100935.12
2022-10-05T06:19:17.173Z,100938.79
2022-10-05T06:26:09.830Z,100940.91
2022-10-05T06:29:25.149Z,100947.09
2022-10-05T06:34:51.988Z,100946.67
2022-10-05T06:37:24.673Z,100942.75
2022-10-05T06:44:54.839Z,100945.11
2022-10-05T06:54:26.336Z,100947.85
2022-10-05T06:58:32.494Z,100948.30
2022-10-05T07:02:49.254Z,100951.80
2022-10-05T07:06:49.060Z,100953.90
2022-10-05T07:44:01.698Z,100939.79
2022-10-05T07:47:17.297Z,100934.23
2022-10-05T07:50:10.710Z,100929.90
2022-10-05T07:54:13.280Z,100928.03
2022-10-05T07:57:45.012Z,100926.55
2022-10-05T08:01:32.610Z,100925.00
2022-10-05T08:05:06.433Z,100926.45
2022-10-05T08:08:58.449Z,100923.16
2022-10-05T08:11:59.802Z,100921.58
2022-10-05T08:15:09.001Z,100917.61
2022-10-05T08:18:04.184Z,100912.27
2022-10-05T08:21:06.467Z,100918.69
2022-10-05T08:27:11.782Z,100923.95
2022-10-05T08:29:53.222Z,100927.86
2022-10-05T08:33:03.427Z,100921.77
2022-10-05T08:36:17.031Z,100919.42
2022-10-05T08:38:50.660Z,100918.41
2022-10-05T08:42:05.325Z,100922.52
2022-10-05T08:45:22.350Z,100922.27
2022-10-05T08:48:54.737Z,100920.61
2022-10-05T08:51:49.782Z,100914.23
2022-10-05T08:54:36.778Z,100914.38
2022-10-05T08:57:43.825Z,100915.49
2022-10-05T09:00:24.330Z,100907.71
2022-10-05T09:04:04.142Z,100902.02
2022-10-05T09:07:01.882Z,100909.45
2022-10-05T09:10:01.549Z,100908.14
2022-10-05T09:13:06.987Z,100907.36
2022-10-05T09:16:47.065Z,100904.12
2022-10-05T09:25:52.304Z,100904.09
2022-10-05T09:28:00.811Z,100899.10
2022-10-05T09:35:31.672Z,100906.75
2022-10-05T09:39:23.643Z,100903.16
2022-10-05T09:44:44.170Z,100901.16
2022-10-05T10:10:11.573Z,100902.70
2022-10-05T10:23:15.255Z,100887.77
2022-10-05T10:25:52.320Z,100893.23
2022-10-05T10:36:36.988Z,100891.17
2022-10-05T10:44:49.979Z,100880.39
2022-10-05T11:00:48.102Z,100878.64
2022-10-05T11:29:03.022Z,100840.36
2022-10-05T11:37:57.508Z,100835.00
2022-10-05T11:41:24.533Z,100831.63
2022-10-05T11:49:33.413Z,100825.95
2022-10-05T11:53:16.122Z,100817.20
2022-10-05T12:14:13.118Z,100815.11
2022-10-05T12:18:13.478Z,100816.73
2022-10-05T12:22:12.289Z,100811.72
2022-10-05T12:25:33.427Z,100805.49
2022-10-05T13:09:44.026Z,100782.64
2022-10-05T13:12:58.944Z,100779.61
2022-10-05T13:16:44.145Z,100770.92
2022-10-05T13:20:06.451Z,100775.41
2022-10-05T13:23:50.775Z,100782.32
2022-10-05T13:27:06.012Z,100782.29
2022-10-05T13:31:45.917Z,100783.38
2022-10-05T13:33:51.174Z,100777.92
2022-10-05T13:44:49.522Z,100766.35
2022-10-05T13:54:12.581Z,100758.11
2022-10-05T14:12:32.142Z,100740.02
2022-10-05T14:19:26.279Z,100728.20
2022-10-05T14:23:13.206Z,100720.65
2022-10-05T14:49:25.883Z,100714.16
2022-10-05T14:52:52.087Z,100717.67
2022-10-05T14:55:51.149Z,100714.52
2022-10-05T14:58:49.793Z,100709.36
2022-10-05T15:02:19.511Z,100711.67
2022-10-05T15:06:01.269Z,100709.54
2022-10-05T15:11:11.847Z,100711.89
2022-10-05T15:14:29.788Z,100706.55
2022-10-05T15:17:59.431Z,100706.60
2022-10-05T15:21:09.522Z,100700.34
2022-10-05T15:24:00.972Z,100700.78
2022-10-05T15:27:26.436Z,100692.65
2022-10-05T15:30:15.720Z,100687.36
2022-10-05T15:33:10.726Z,100686.23
2022-10-05T15:36:04.477Z,100682.66
2022-10-05T15:38:50.402Z,100679.75
2022-10-05T15:41:45.898Z,100678.02
2022-10-05T15:44:36.658Z,100676.48
2022-10-05T15:47:22.680Z,100671.42
2022-10-05T15:50:26.524Z,100669.48
2022-10-05T15:53:10.466Z,100669.77
2022-10-05T15:55:53.342Z,100669.28
2022-10-05T15:58:54.584Z,100663.87
2022-10-05T16:01:51.811Z,100664.74
2022-10-05T16:04:39.941Z,100667.80
2022-10-05T16:07:45.868Z,100674.51
2022-10-05T16:10:24.424Z,100669.84
2022-10-05T16:13:35.008Z,100668.63
2022-10-05T16:16:37.682Z,100663.70
2022-10-05T16:19:28.757Z,100664.52
2022-10-05T16:22:43.356Z,100665.08
2022-10-05T16:25:26.169Z,100662.89
2022-10-05T16:28:11.865Z,100664.63
2022-10-05T16:31:02.037Z,100666.00
2022-10-05T16:34:19.456Z,100672.67
2022-10-05T16:36:59.467Z,100673.39
2022-10-05T16:39:50.256Z,100673.06
2022-10-05T16:42:35.161Z,100672.66
2022-10-05T16:45:47.550Z,100672.03
2022-10-05T16:48:28.353Z,100670.78
2022-10-05T16:51:30.933Z,100666.42
2022-10-05T16:54:21.019Z,100668.56
2022-10-05T16:56:57.236Z,100670.44
2022-10-05T16:59:48.229Z,100674.39
2022-10-05T17:03:18.105Z,100671.63
2022-10-05T17:06:04.057Z,100669.10
2022-10-05T17:09:16.845Z,100664.55
2022-10-05T17:12:15.611Z,100666.73
2022-10-05T17:15:00.934Z,100667.27
2022-10-05T17:18:04.293Z,100668.16
2022-10-05T17:20:42.577Z,100667.59
2022-10-05T17:23:58.643Z,100668.77
2022-10-05T17:27:15.619Z,100663.59
2022-10-05T17:29:55.353Z,100659.28
2022-10-05T17:32:47.062Z,100662.42
2022-10-05T17:35:41.055Z,100659.91
2022-10-05T17:38:58.794Z,100656.69
2022-10-05T17:41:37.435Z,100659.96
2022-10-05T17:44:19.266Z,100660.19
2022-10-05T17:46:58.746Z,100658.48
2022-10-05T17:50:15.149Z,100656.64
2022-10-05T17:53:04.883Z,100659.52
2022-10-05T17:55:34.411Z,100658.21
2022-10-05T17:58:27.697Z,100660.89
2022-10-05T18:00:57.647Z,100660.66
2022-10-05T18:03:51.773Z,100659.82
2022-10-05T18:06:35.994Z,100659.59
2022-10-05T18:09:48.678Z,100658.21
2022-10-05T18:12:25.064Z,100658.80
2022-10-05T18:15:25.903Z,100663.77
2022-10-05T18:18:59.713Z,100662.46
2022-10-05T18:22:29.783Z,100663.11
2022-10-05T18:25:55.498Z,100661.38
2022-10-05T18:28:48.990Z,100659.48
2022-10-05T18:32:01.607Z,100655.39
2022-10-05T18:40:09.580Z,100658.45
2022-10-05T18:43:14.723Z,100660.71
2022-10-05T18:46:29.129Z,100664.50
2022-10-05T18:50:01.702Z,100668.00
2022-10-05T18:53:01.693Z,100666.77
2022-10-05T18:56:21.867Z,100660.51
2022-10-05T18:59:21.320Z,100661.86
2022-10-05T19:02:18.962Z,100659.96
2022-10-05T19:05:46.827Z,100659.34
2022-10-05T19:09:17.510Z,100656.83
2022-10-05T19:11:49.901Z,100657.98
2022-10-05T19:14:51.983Z,100661.34
2022-10-05T19:17:32.303Z,100658.36
2022-10-05T19:20:13.892Z,100660.61
2022-10-05T19:23:35.621Z,100662.05
2022-10-05T19:26:42.206Z,100659.79
2022-10-05T19:29:49.616Z,100664.77
2022-10-05T19:32:46.410Z,100663.22
2022-10-05T19:35:55.194Z,100664.33
2022-10-05T19:38:56.948Z,100664.83
2022-10-05T19:42:15.716Z,100668.52
2022-10-05T19:45:16.937Z,100670.38
2022-10-05T19:47:55.162Z,100670.74
2022-10-05T19:50:48.683Z,100673.84
2022-10-05T19:53:27.376Z,100677.95
2022-10-05T19:56:18.964Z,100679.42
2022-10-05T19:59:01.448Z,100684.98
2022-10-05T20:01:35.699Z,100690.10
2022-10-05T20:04:10.730Z,100687.23
2022-10-05T20:06:41.947Z,100691.50
2022-10-05T20:09:22.521Z,100688.29
2022-10-05T20:11:54.314Z,100687.97
2022-10-05T20:14:59.222Z,100693.69
2022-10-05T20:17:48.976Z,100699.50
2022-10-05T20:20:42.332Z,100701.86
2022-10-05T20:23:28.175Z,100703.88
2022-10-05T20:26:18.023Z,100701.34
2022-10-05T20:28:47.915Z,100707.55
2022-10-05T20:31:20.252Z,100710.63
2022-10-05T20:33:54.702Z,100712.76
2022-10-05T20:36:24.150Z,100717.20
2022-10-05T20:38:56.030Z,100719.08
2022-10-05T20:41:25.125Z,100720.00
2022-10-05T20:44:08.451Z,100723.70
2022-10-05T20:46:46.890Z,100721.71
2022-10-05T20:49:20.526Z,100722.59
2022-10-05T20:51:56.170Z,100730.13
2022-10-05T20:54:27.735Z,100724.57
2022-10-05T20:56:57.889Z,100729.67
2022-10-05T20:59:30.655Z,100730.98
2022-10-05T21:02:14.186Z,100730.48
2022-10-05T21:04:59.199Z,100733.84
2022-10-05T21:07:47.743Z,100735.65
2022-10-05T21:10:50.758Z,100737.40
2022-10-05T21:13:31.160Z,100737.13
2022-10-05T21:16:16.477Z,100740.04
2022-10-05T21:18:59.701Z,100745.33
2022-10-05T21:21:37.468Z,100750.41
2022-10-05T21:24:15.248Z,100751.54
2022-10-05T21:26:50.254Z,100755.91
2022-10-05T21:29:24.676Z,100755.80
2022-10-05T21:32:19.569Z,100755.67
2022-10-05T21:34:53.747Z,100759.98
2022-10-05T21:37:28.418Z,100762.45
2022-10-05T21:40:05.067Z,100761.54
2022-10-05T21:42:39.151Z,100765.73
2022-10-05T21:45:12.352Z,100766.94
2022-10-05T21:47:43.170Z,100772.52
2022-10-05T21:50:20.445Z,100769.39
2022-10-05T21:52:57.075Z,100771.17
2022-10-05T21:55:36.049Z,100774.16
2022-10-05T21:58:42.873Z,100773.30
2022-10-05T22:01:22.694Z,100775.48
2022-10-05T22:04:08.559Z,100780.39
2022-10-05T22:06:48.113Z,100781.06
2022-10-05T22:09:23.531Z,100777.30
2022-10-05T22:11:53.011Z,100778.60
2022-10-05T22:20:56.774Z,100773.98
2022-10-05T22:23:26.194Z,100775.77
2022-10-05T22:25:55.247Z,100775.05
2022-10-05T22:28:24.292Z,100777.83
2022-10-05T22:30:53.463Z,100780.10
2022-10-05T22:33:22.399Z,100780.95
2022-10-05T22:35:51.829Z,100781.23
2022-10-05T22:38:24.017Z,100781.21
2022-10-05T22:40:55.211Z,100778.92
2022-10-05T22:43:27.174Z,100780.31
2022-10-05T22:51:13.079Z,100785.98
2022-10-05T22:53:42.115Z,100784.65
2022-10-05T22:56:13.805Z,100789.29
2022-10-05T22:58:44.499Z,100792.29
2022-10-05T23:01:18.274Z,100792.23
2022-10-05T23:03:47.820Z,100791.05
2022-10-05T23:06:21.336Z,100797.63
2022-10-05T23:08:50.570Z,100802.30
2022-10-05T23:11:25.117Z,100801.95
2022-10-05T23:13:57.023Z,100799.16
2022-10-05T23:16:28.575Z,100799.19
2022-10-05T23:18:59.340Z,100799.34
2022-10-05T23:21:30.600Z,100804.23
2022-10-05T23:23:59.481Z,100803.93
2022-10-05T23:26:28.237Z,100806.77
2022-10-05T23:28:57.168Z,100804.65
2022-10-05T23:31:30.041Z,100805.32
2022-10-05T23:33:58.789Z,100807.77
2022-10-05T23:36:32.375Z,100808.65
2022-10-05T23:39:01.356Z,100811.17
2022-10-05T23:41:30.139Z,100810.50
2022-10-05T23:43:58.984Z,100808.94
2022-10-05T23:46:27.919Z,100809.32
2022-10-05T23:48:56.740Z,100808.89
2022-10-05T23:51:25.543Z,100809.72
2022-10-05T23:53:54.506Z,100813.64
2022-10-05T23:56:23.348Z,100815.54
2022-10-05T23:58:52.502Z,100813.79
